Terminal Aerodrome Forecast
Issued by NWS

Current Version | Previous Version | Graphics & Text | Print | Product List | Glossary On
Versions: 1 2 3 4 5 6 7 8 9 10 11 12 13
943
FTUS41 KILN 220538
TAFLCK
TAF
KLCK 220538Z 2206/2306 04005KT P6SM OVC150
     FM221300 07008KT P6SM SCT250=

USA.gov is the U.S. government's official web portal to all federal, state and local government web resources and services.